Time;durP1;ratioP1;P1;durP2;ratioP2;P2;SDS_P1;SDS_P2;PMS_P1;PMS_P2;Temp;Humidity;BMP_temperature;BMP_pressure;BME280_temperature;BME280_humidity;BME280_pressure;Samples;Min_cycle;Max_cycle;Signal;HPM_P1;HPM_P2
2022/12/28 00:00:00;;;;;;;1.6;1.6;;;;;;;5.8;100.0;101430;;;;
2022/12/28 00:01:04;;;;;;;1.6;1.6;;;;;;;5.8;100.0;101430;;;;
2022/12/28 00:02:00;;;;;;;1.6;1.6;;;;;;;5.7;100.0;101420;;;;
2022/12/28 00:03:00;;;;;;;1.6;1.6;;;;;;;5.7;100.0;101420;;;;
2022/12/28 00:04:02;;;;;;;1.6;1.6;;;;;;;5.7;100.0;101420;;;;
2022/12/28 00:05:00;;;;;;;1.6;1.6;;;;;;;5.7;100.0;101420;;;;
2022/12/28 00:06:01;;;;;;;1.6;1.6;;;;;;;5.7;100.0;101430;;;;
2022/12/28 00:07:00;;;;;;;1.6;1.6;;;;;;;5.7;100.0;101430;;;;
2022/12/28 00:08:00;;;;;;;1.6;1.6;;;;;;;5.7;100.0;101430;;;;
2022/12/28 00:09:01;;;;;;;1.6;1.6;;;;;;;5.7;100.0;101430;;;;
2022/12/28 00:10:00;;;;;;;1.6;1.6;;;;;;;5.7;100.0;101420;;;;
2022/12/28 00:11:10;;;;;;;1.6;1.6;;;;;;;5.7;100.0;101420;;;;
2022/12/28 00:12:00;;;;;;;1.6;1.6;;;;;;;5.7;100.0;101410;;;;
2022/12/28 00:13:00;;;;;;;1.6;1.6;;;;;;;5.7;100.0;101410;;;;
2022/12/28 00:14:01;;;;;;;1.6;1.6;;;;;;;5.7;100.0;101410;;;;
2022/12/28 00:15:00;;;;;;;1.6;1.6;;;;;;;5.7;100.0;101410;;;;
2022/12/28 00:16:08;;;;;;;1.6;1.6;;;;;;;5.7;100.0;101410;;;;
2022/12/28 00:17:00;;;;;;;1.6;1.6;;;;;;;5.7;100.0;101410;;;;
2022/12/28 00:18:00;;;;;;;1.6;1.6;;;;;;;5.8;100.0;101400;;;;
2022/12/28 00:19:01;;;;;;;1.6;1.6;;;;;;;5.8;100.0;101400;;;;
2022/12/28 00:20:00;;;;;;;1.6;1.6;;;;;;;5.8;100.0;101390;;;;
2022/12/28 00:21:01;;;;;;;1.5;1.5;;;;;;;5.8;100.0;101390;;;;
2022/12/28 00:22:00;;;;;;;1.5;1.5;;;;;;;5.8;100.0;101390;;;;
2022/12/28 00:23:03;;;;;;;1.5;1.5;;;;;;;5.8;100.0;101390;;;;
2022/12/28 00:24:01;;;;;;;1.5;1.5;;;;;;;5.8;100.0;101380;;;;
2022/12/28 00:25:00;;;;;;;1.5;1.5;;;;;;;5.8;100.0;101380;;;;
2022/12/28 00:26:04;;;;;;;1.5;1.5;;;;;;;5.8;100.0;101380;;;;
2022/12/28 00:27:00;;;;;;;1.5;1.5;;;;;;;5.8;100.0;101380;;;;
2022/12/28 00:28:01;;;;;;;1.5;1.5;;;;;;;5.9;100.0;101370;;;;
2022/12/28 00:29:05;;;;;;;1.5;1.5;;;;;;;5.9;100.0;101370;;;;
2022/12/28 00:30:01;;;;;;;1.5;1.5;;;;;;;5.8;100.0;101360;;;;
2022/12/28 00:31:00;;;;;;;1.5;1.5;;;;;;;5.8;100.0;101360;;;;
2022/12/28 00:32:00;;;;;;;1.5;1.5;;;;;;;5.8;100.0;101360;;;;
2022/12/28 00:33:00;;;;;;;1.5;1.5;;;;;;;5.8;100.0;101360;;;;
2022/12/28 00:34:01;;;;;;;1.5;1.5;;;;;;;5.8;100.0;101350;;;;
2022/12/28 00:35:00;;;;;;;1.5;1.5;;;;;;;5.8;100.0;101350;;;;
2022/12/28 00:36:01;;;;;;;1.5;1.5;;;;;;;5.8;100.0;101350;;;;
2022/12/28 00:37:10;;;;;;;1.5;1.5;;;;;;;5.8;100.0;101350;;;;
2022/12/28 00:38:00;;;;;;;1.5;1.5;;;;;;;5.8;100.0;101340;;;;
2022/12/28 00:39:00;;;;;;;1.5;1.5;;;;;;;5.8;100.0;101340;;;;
2022/12/28 00:40:00;;;;;;;1.5;1.5;;;;;;;5.8;100.0;101340;;;;
2022/12/28 00:41:00;;;;;;;1.8;1.8;;;;;;;5.8;100.0;101340;;;;
2022/12/28 00:42:00;;;;;;;1.8;1.8;;;;;;;5.7;100.0;101340;;;;
2022/12/28 00:43:00;;;;;;;1.8;1.8;;;;;;;5.7;100.0;101340;;;;
2022/12/28 00:44:00;;;;;;;1.8;1.8;;;;;;;5.7;100.0;101340;;;;
2022/12/28 00:45:00;;;;;;;1.8;1.8;;;;;;;5.7;100.0;101340;;;;
2022/12/28 00:46:01;;;;;;;1.8;1.8;;;;;;;5.7;100.0;101320;;;;
2022/12/28 00:47:00;;;;;;;1.8;1.8;;;;;;;5.7;100.0;101320;;;;
2022/12/28 00:48:00;;;;;;;1.8;1.8;;;;;;;5.7;100.0;101320;;;;
2022/12/28 00:49:00;;;;;;;1.8;1.8;;;;;;;5.7;100.0;101320;;;;
2022/12/28 00:50:00;;;;;;;1.8;1.8;;;;;;;5.8;100.0;101320;;;;
2022/12/28 00:51:01;;;;;;;1.8;1.8;;;;;;;5.8;100.0;101320;;;;
2022/12/28 00:52:00;;;;;;;1.8;1.8;;;;;;;5.8;100.0;101320;;;;
2022/12/28 00:53:00;;;;;;;1.8;1.8;;;;;;;5.8;100.0;101320;;;;
2022/12/28 00:54:00;;;;;;;1.8;1.8;;;;;;;5.7;100.0;101320;;;;
2022/12/28 00:55:00;;;;;;;1.8;1.8;;;;;;;5.7;100.0;101320;;;;
2022/12/28 00:56:10;;;;;;;1.8;1.8;;;;;;;5.7;100.0;101330;;;;
2022/12/28 00:57:00;;;;;;;1.8;1.8;;;;;;;5.7;100.0;101330;;;;
2022/12/28 00:58:01;;;;;;;1.8;1.8;;;;;;;5.8;100.0;101330;;;;
2022/12/28 00:59:00;;;;;;;1.8;1.8;;;;;;;5.8;100.0;101330;;;;
2022/12/28 01:00:00;;;;;;;1.7;1.7;;;;;;;5.8;100.0;101320;;;;
2022/12/28 01:01:01;;;;;;;1.7;1.7;;;;;;;5.8;100.0;101320;;;;
2022/12/28 01:02:01;;;;;;;1.7;1.7;;;;;;;5.9;100.0;101320;;;;
2022/12/28 01:03:00;;;;;;;1.7;1.7;;;;;;;5.9;100.0;101320;;;;
2022/12/28 01:04:00;;;;;;;1.7;1.7;;;;;;;5.9;100.0;101310;;;;
2022/12/28 01:05:00;;;;;;;1.7;1.7;;;;;;;5.9;100.0;101310;;;;
2022/12/28 01:06:04;;;;;;;1.7;1.7;;;;;;;5.8;100.0;101320;;;;
2022/12/28 01:07:00;;;;;;;1.7;1.7;;;;;;;5.8;100.0;101320;;;;
2022/12/28 01:08:00;;;;;;;1.7;1.7;;;;;;;5.8;100.0;101310;;;;
2022/12/28 01:09:00;;;;;;;1.7;1.7;;;;;;;5.8;100.0;101310;;;;
2022/12/28 01:10:00;;;;;;;1.7;1.7;;;;;;;5.9;100.0;101300;;;;
2022/12/28 01:11:05;;;;;;;1.7;1.7;;;;;;;5.9;100.0;101300;;;;
2022/12/28 01:12:00;;;;;;;1.7;1.7;;;;;;;5.9;100.0;101300;;;;
2022/12/28 01:13:00;;;;;;;1.7;1.7;;;;;;;5.9;100.0;101300;;;;
2022/12/28 01:14:01;;;;;;;1.7;1.7;;;;;;;5.9;100.0;101290;;;;
2022/12/28 01:15:01;;;;;;;1.7;1.7;;;;;;;5.9;100.0;101290;;;;
2022/12/28 01:16:08;;;;;;;1.7;1.7;;;;;;;5.9;100.0;101290;;;;
2022/12/28 01:17:00;;;;;;;1.7;1.7;;;;;;;5.9;100.0;101290;;;;
2022/12/28 01:18:00;;;;;;;1.7;1.7;;;;;;;6.0;100.0;101290;;;;
2022/12/28 01:19:02;;;;;;;1.7;1.7;;;;;;;6.0;100.0;101290;;;;
2022/12/28 01:20:00;;;;;;;1.5;1.5;;;;;;;6.0;100.0;101290;;;;
2022/12/28 01:21:06;;;;;;;1.5;1.5;;;;;;;6.0;100.0;101290;;;;
2022/12/28 01:22:00;;;;;;;1.5;1.5;;;;;;;6.0;100.0;101290;;;;
2022/12/28 01:23:00;;;;;;;1.5;1.5;;;;;;;6.0;100.0;101290;;;;
2022/12/28 01:24:01;;;;;;;1.5;1.5;;;;;;;6.0;100.0;101280;;;;
2022/12/28 01:25:00;;;;;;;1.5;1.5;;;;;;;6.0;100.0;101280;;;;
2022/12/28 01:26:01;;;;;;;1.5;1.5;;;;;;;6.1;100.0;101280;;;;
2022/12/28 01:27:00;;;;;;;1.5;1.5;;;;;;;6.1;100.0;101280;;;;
2022/12/28 01:28:00;;;;;;;1.5;1.5;;;;;;;6.0;100.0;101280;;;;
2022/12/28 01:29:01;;;;;;;1.5;1.5;;;;;;;6.0;100.0;101280;;;;
2022/12/28 01:30:00;;;;;;;1.5;1.5;;;;;;;6.0;100.0;101280;;;;
2022/12/28 01:31:03;;;;;;;1.5;1.5;;;;;;;6.0;100.0;101280;;;;
2022/12/28 01:32:00;;;;;;;1.5;1.5;;;;;;;6.0;100.0;101270;;;;
2022/12/28 01:33:00;;;;;;;1.5;1.5;;;;;;;6.0;100.0;101270;;;;
2022/12/28 01:34:01;;;;;;;1.5;1.5;;;;;;;6.2;100.0;101270;;;;
2022/12/28 01:35:00;;;;;;;1.5;1.5;;;;;;;6.2;100.0;101270;;;;
2022/12/28 01:36:08;;;;;;;1.5;1.5;;;;;;;6.1;100.0;101260;;;;
2022/12/28 01:37:00;;;;;;;1.5;1.5;;;;;;;6.1;100.0;101260;;;;
2022/12/28 01:38:00;;;;;;;1.5;1.5;;;;;;;6.1;100.0;101260;;;;
2022/12/28 01:39:03;;;;;;;1.5;1.5;;;;;;;6.1;100.0;101260;;;;
2022/12/28 01:40:00;;;;;;;1.4;1.4;;;;;;;6.0;100.0;101250;;;;
2022/12/28 01:41:01;;;;;;;1.4;1.4;;;;;;;6.0;100.0;101250;;;;
2022/12/28 01:42:00;;;;;;;1.4;1.4;;;;;;;6.1;100.0;101250;;;;
2022/12/28 01:43:00;;;;;;;1.4;1.4;;;;;;;6.1;100.0;101250;;;;
2022/12/28 01:44:00;;;;;;;1.4;1.4;;;;;;;6.1;100.0;101240;;;;
2022/12/28 01:45:10;;;;;;;1.4;1.4;;;;;;;6.1;100.0;101240;;;;
2022/12/28 01:46:00;;;;;;;1.4;1.4;;;;;;;6.1;100.0;101240;;;;
2022/12/28 01:47:03;;;;;;;1.4;1.4;;;;;;;6.1;100.0;101240;;;;
2022/12/28 01:48:00;;;;;;;1.4;1.4;;;;;;;6.1;100.0;101240;;;;
2022/12/28 01:49:04;;;;;;;1.4;1.4;;;;;;;6.1;100.0;101240;;;;
2022/12/28 01:50:04;;;;;;;1.4;1.4;;;;;;;6.1;100.0;101240;;;;
2022/12/28 01:51:00;;;;;;;1.4;1.4;;;;;;;6.1;100.0;101240;;;;
2022/12/28 01:52:02;;;;;;;1.4;1.4;;;;;;;6.1;100.0;101230;;;;
2022/12/28 01:53:03;;;;;;;1.4;1.4;;;;;;;6.1;100.0;101230;;;;
2022/12/28 01:54:01;;;;;;;1.4;1.4;;;;;;;6.2;100.0;101230;;;;
2022/12/28 01:55:04;;;;;;;1.4;1.4;;;;;;;6.2;100.0;101230;;;;
2022/12/28 01:56:00;;;;;;;1.4;1.4;;;;;;;6.1;100.0;101220;;;;
2022/12/28 01:57:01;;;;;;;1.4;1.4;;;;;;;6.1;100.0;101220;;;;
2022/12/28 01:58:04;;;;;;;1.4;1.4;;;;;;;6.1;100.0;101220;;;;
2022/12/28 01:59:00;;;;;;;1.4;1.4;;;;;;;6.1;100.0;101220;;;;
2022/12/28 02:00:04;;;;;;;5.2;1.7;;;;;;;6.2;100.0;101200;;;;
2022/12/28 02:01:02;;;;;;;5.2;1.7;;;;;;;6.2;100.0;101200;;;;
2022/12/28 02:02:01;;;;;;;5.2;1.7;;;;;;;6.3;100.0;101210;;;;
2022/12/28 02:03:04;;;;;;;5.2;1.7;;;;;;;6.3;100.0;101210;;;;
2022/12/28 02:04:00;;;;;;;5.2;1.7;;;;;;;6.2;100.0;101200;;;;
2022/12/28 02:05:01;;;;;;;5.2;1.7;;;;;;;6.2;100.0;101200;;;;
2022/12/28 02:06:02;;;;;;;5.2;1.7;;;;;;;6.3;100.0;101200;;;;
2022/12/28 02:07:00;;;;;;;5.2;1.7;;;;;;;6.3;100.0;101200;;;;
2022/12/28 02:08:06;;;;;;;5.2;1.7;;;;;;;6.3;100.0;101190;;;;
2022/12/28 02:09:05;;;;;;;5.2;1.7;;;;;;;6.3;100.0;101190;;;;
2022/12/28 02:10:11;;;;;;;5.2;1.7;;;;;;;6.3;100.0;101190;;;;
2022/12/28 02:11:01;;;;;;;5.2;1.7;;;;;;;6.3;100.0;101190;;;;
2022/12/28 02:12:00;;;;;;;5.2;1.7;;;;;;;6.3;100.0;101180;;;;
2022/12/28 02:13:02;;;;;;;5.2;1.7;;;;;;;6.3;100.0;101180;;;;
2022/12/28 02:14:01;;;;;;;5.2;1.7;;;;;;;6.3;100.0;101180;;;;
2022/12/28 02:15:01;;;;;;;5.2;1.7;;;;;;;6.3;100.0;101180;;;;
2022/12/28 02:16:00;;;;;;;5.2;1.7;;;;;;;6.3;100.0;101180;;;;
2022/12/28 02:17:00;;;;;;;5.2;1.7;;;;;;;6.3;100.0;101180;;;;
2022/12/28 02:18:01;;;;;;;5.2;1.7;;;;;;;6.2;100.0;101170;;;;
2022/12/28 02:19:00;;;;;;;5.2;1.7;;;;;;;6.2;100.0;101170;;;;
2022/12/28 02:20:01;;;;;;;8.9;3.5;;;;;;;6.3;100.0;101160;;;;
2022/12/28 02:21:03;;;;;;;8.9;3.5;;;;;;;6.3;100.0;101160;;;;
2022/12/28 02:22:10;;;;;;;8.9;3.5;;;;;;;6.3;100.0;101160;;;;
2022/12/28 02:23:10;;;;;;;8.9;3.5;;;;;;;6.3;100.0;101160;;;;
2022/12/28 02:24:10;;;;;;;8.9;3.5;;;;;;;6.4;100.0;101160;;;;
2022/12/28 02:25:13;;;;;;;8.9;3.5;;;;;;;6.4;100.0;101160;;;;
2022/12/28 02:26:10;;;;;;;8.9;3.5;;;;;;;6.4;100.0;101160;;;;
2022/12/28 02:27:05;;;;;;;8.9;3.5;;;;;;;6.4;100.0;101160;;;;
2022/12/28 02:28:08;;;;;;;8.9;3.5;;;;;;;6.5;100.0;101160;;;;
2022/12/28 02:29:08;;;;;;;8.9;3.5;;;;;;;6.5;100.0;101160;;;;
2022/12/28 02:30:02;;;;;;;8.9;3.5;;;;;;;6.4;100.0;101140;;;;
2022/12/28 02:31:06;;;;;;;8.9;3.5;;;;;;;6.4;100.0;101140;;;;
2022/12/28 02:32:10;;;;;;;8.9;3.5;;;;;;;6.4;100.0;101140;;;;
2022/12/28 02:33:06;;;;;;;8.9;3.5;;;;;;;6.4;100.0;101140;;;;
2022/12/28 02:34:08;;;;;;;8.9;3.5;;;;;;;6.5;100.0;101130;;;;
2022/12/28 02:35:06;;;;;;;8.9;3.5;;;;;;;6.5;100.0;101130;;;;
2022/12/28 02:36:04;;;;;;;8.9;3.5;;;;;;;6.5;100.0;101140;;;;
2022/12/28 02:37:06;;;;;;;8.9;3.5;;;;;;;6.5;100.0;101140;;;;
2022/12/28 02:38:09;;;;;;;8.9;3.5;;;;;;;6.4;100.0;101120;;;;
2022/12/28 02:39:04;;;;;;;8.9;3.5;;;;;;;6.4;100.0;101120;;;;
2022/12/28 02:40:03;;;;;;;1.5;1.5;;;;;;;6.4;100.0;101120;;;;
2022/12/28 02:41:05;;;;;;;1.5;1.5;;;;;;;6.4;100.0;101120;;;;
2022/12/28 02:42:02;;;;;;;1.5;1.5;;;;;;;6.5;100.0;101120;;;;
2022/12/28 02:43:02;;;;;;;1.5;1.5;;;;;;;6.5;100.0;101120;;;;
2022/12/28 02:44:00;;;;;;;1.5;1.5;;;;;;;6.5;100.0;101110;;;;
2022/12/28 02:50:04;;;;;;;1.5;1.5;;;;;;;6.5;100.0;101110;;;;
2022/12/28 02:50:05;;;;;;;1.5;1.5;;;;;;;6.6;100.0;101110;;;;
2022/12/28 02:51:10;;;;;;;1.5;1.5;;;;;;;6.6;100.0;101110;;;;
2022/12/28 02:52:08;;;;;;;1.5;1.5;;;;;;;6.7;100.0;101100;;;;
2022/12/28 02:53:10;;;;;;;1.5;1.5;;;;;;;6.7;100.0;101100;;;;
2022/12/28 02:56:05;;;;;;;1.5;1.5;;;;;;;6.6;100.0;101110;;;;
2022/12/28 02:56:09;;;;;;;1.5;1.5;;;;;;;6.5;100.0;101130;;;;
2022/12/28 02:57:07;;;;;;;1.5;1.5;;;;;;;6.5;100.0;101130;;;;
2022/12/28 02:58:10;;;;;;;1.5;1.5;;;;;;;6.5;100.0;101110;;;;
2022/12/28 02:59:10;;;;;;;1.5;1.5;;;;;;;6.5;100.0;101110;;;;
2022/12/28 03:00:00;;;;;;;1.4;1.4;;;;;;;6.6;100.0;101100;;;;
2022/12/28 03:01:00;;;;;;;1.4;1.4;;;;;;;6.6;100.0;101100;;;;
2022/12/28 03:02:08;;;;;;;1.4;1.4;;;;;;;6.5;100.0;101110;;;;
2022/12/28 03:03:10;;;;;;;1.4;1.4;;;;;;;6.5;100.0;101110;;;;
2022/12/28 03:04:10;;;;;;;1.4;1.4;;;;;;;6.6;100.0;101100;;;;
2022/12/28 03:05:03;;;;;;;1.4;1.4;;;;;;;6.6;100.0;101100;;;;
2022/12/28 03:08:18;;;;;;;1.4;1.4;;;;;;;6.6;100.0;101110;;;;
2022/12/28 03:09:08;;;;;;;1.4;1.4;;;;;;;6.6;100.0;101110;;;;
2022/12/28 03:10:09;;;;;;;1.4;1.4;;;;;;;6.7;100.0;101100;;;;
2022/12/28 03:11:07;;;;;;;1.4;1.4;;;;;;;6.7;100.0;101100;;;;
2022/12/28 03:12:06;;;;;;;1.4;1.4;;;;;;;6.6;100.0;101110;;;;
2022/12/28 03:13:04;;;;;;;1.4;1.4;;;;;;;6.6;100.0;101110;;;;
2022/12/28 03:14:02;;;;;;;1.4;1.4;;;;;;;6.6;100.0;101090;;;;
2022/12/28 03:15:10;;;;;;;1.4;1.4;;;;;;;6.6;100.0;101090;;;;
2022/12/28 03:16:04;;;;;;;1.4;1.4;;;;;;;6.6;100.0;101090;;;;
2022/12/28 03:31:05;;;;;;;2.2;2.1;;;;;;;6.7;100.0;101070;;;;
2022/12/28 03:32:01;;;;;;;2.2;2.1;;;;;;;6.6;100.0;101070;;;;
2022/12/28 03:33:01;;;;;;;2.2;2.1;;;;;;;6.6;100.0;101070;;;;
2022/12/28 03:34:09;;;;;;;2.2;2.1;;;;;;;6.6;100.0;101060;;;;
2022/12/28 03:35:00;;;;;;;2.2;2.1;;;;;;;6.6;100.0;101060;;;;
2022/12/28 03:36:10;;;;;;;2.2;2.1;;;;;;;6.7;100.0;101080;;;;
2022/12/28 03:37:07;;;;;;;2.2;2.1;;;;;;;6.7;100.0;101080;;;;
2022/12/28 03:38:01;;;;;;;2.2;2.1;;;;;;;6.7;100.0;101080;;;;
2022/12/28 03:39:00;;;;;;;2.2;2.1;;;;;;;6.7;100.0;101080;;;;
2022/12/28 03:40:08;;;;;;;1.3;1.3;;;;;;;6.8;100.0;101070;;;;
2022/12/28 03:41:06;;;;;;;1.3;1.3;;;;;;;6.8;100.0;101070;;;;
2022/12/28 03:44:06;;;;;;;1.3;1.3;;;;;;;6.6;100.0;101060;;;;
2022/12/28 03:45:10;;;;;;;1.3;1.3;;;;;;;6.6;100.0;101060;;;;
2022/12/28 03:46:05;;;;;;;1.3;1.3;;;;;;;6.7;100.0;101070;;;;
2022/12/28 03:47:06;;;;;;;1.3;1.3;;;;;;;6.7;100.0;101070;;;;
2022/12/28 03:48:02;;;;;;;1.3;1.3;;;;;;;6.7;100.0;101070;;;;
2022/12/28 03:49:01;;;;;;;1.3;1.3;;;;;;;6.7;100.0;101070;;;;
2022/12/28 03:50:00;;;;;;;1.3;1.3;;;;;;;6.7;100.0;101060;;;;
2022/12/28 03:51:00;;;;;;;1.3;1.3;;;;;;;6.7;100.0;101060;;;;
2022/12/28 03:52:01;;;;;;;1.3;1.3;;;;;;;6.7;100.0;101070;;;;
2022/12/28 03:53:00;;;;;;;1.3;1.3;;;;;;;6.7;100.0;101070;;;;
2022/12/28 03:54:00;;;;;;;1.3;1.3;;;;;;;6.7;100.0;101060;;;;
2022/12/28 03:55:01;;;;;;;1.3;1.3;;;;;;;6.7;100.0;101060;;;;
2022/12/28 03:56:10;;;;;;;1.3;1.3;;;;;;;6.7;100.0;101060;;;;
2022/12/28 03:57:00;;;;;;;1.3;1.3;;;;;;;6.7;100.0;101060;;;;
2022/12/28 03:58:00;;;;;;;1.3;1.3;;;;;;;6.7;100.0;101060;;;;
2022/12/28 03:59:00;;;;;;;1.3;1.3;;;;;;;6.7;100.0;101060;;;;
2022/12/28 04:00:00;;;;;;;1.2;1.2;;;;;;;6.7;100.0;101060;;;;
2022/12/28 04:01:00;;;;;;;1.2;1.2;;;;;;;6.7;100.0;101060;;;;
2022/12/28 04:02:00;;;;;;;1.2;1.2;;;;;;;6.7;100.0;101050;;;;
2022/12/28 04:03:00;;;;;;;1.2;1.2;;;;;;;6.7;100.0;101050;;;;
2022/12/28 04:04:01;;;;;;;1.2;1.2;;;;;;;6.8;100.0;101050;;;;
2022/12/28 04:05:00;;;;;;;1.2;1.2;;;;;;;6.8;100.0;101050;;;;
2022/12/28 04:06:00;;;;;;;1.2;1.2;;;;;;;6.8;100.0;101050;;;;
2022/12/28 04:07:00;;;;;;;1.2;1.2;;;;;;;6.8;100.0;101050;;;;
2022/12/28 04:08:00;;;;;;;1.2;1.2;;;;;;;6.8;100.0;101050;;;;
2022/12/28 04:09:00;;;;;;;1.2;1.2;;;;;;;6.8;100.0;101050;;;;
2022/12/28 04:10:00;;;;;;;1.2;1.2;;;;;;;6.8;100.0;101040;;;;
2022/12/28 04:11:00;;;;;;;1.2;1.2;;;;;;;6.8;100.0;101040;;;;
2022/12/28 04:12:00;;;;;;;1.2;1.2;;;;;;;6.9;100.0;101030;;;;
2022/12/28 04:13:00;;;;;;;1.2;1.2;;;;;;;6.9;100.0;101030;;;;
2022/12/28 04:14:10;;;;;;;1.2;1.2;;;;;;;6.8;100.0;101030;;;;
2022/12/28 04:15:00;;;;;;;1.2;1.2;;;;;;;6.8;100.0;101030;;;;
2022/12/28 04:16:02;;;;;;;1.2;1.2;;;;;;;6.8;100.0;101030;;;;
2022/12/28 04:17:00;;;;;;;1.2;1.2;;;;;;;6.8;100.0;101030;;;;
2022/12/28 04:18:00;;;;;;;1.2;1.2;;;;;;;6.8;100.0;101030;;;;
2022/12/28 04:19:00;;;;;;;1.2;1.2;;;;;;;6.8;100.0;101030;;;;
2022/12/28 04:20:00;;;;;;;1.4;1.4;;;;;;;6.9;100.0;101030;;;;
2022/12/28 04:21:01;;;;;;;1.4;1.4;;;;;;;6.9;100.0;101030;;;;
2022/12/28 04:22:00;;;;;;;1.4;1.4;;;;;;;6.9;100.0;101030;;;;
2022/12/28 04:23:00;;;;;;;1.4;1.4;;;;;;;6.9;100.0;101030;;;;
2022/12/28 04:24:00;;;;;;;1.4;1.4;;;;;;;6.9;100.0;101030;;;;
2022/12/28 04:25:00;;;;;;;1.4;1.4;;;;;;;6.9;100.0;101030;;;;
2022/12/28 04:26:05;;;;;;;1.4;1.4;;;;;;;7.0;100.0;101030;;;;
2022/12/28 04:27:00;;;;;;;1.4;1.4;;;;;;;7.0;100.0;101030;;;;
2022/12/28 04:28:00;;;;;;;1.4;1.4;;;;;;;6.9;100.0;101030;;;;
2022/12/28 04:29:01;;;;;;;1.4;1.4;;;;;;;6.9;100.0;101030;;;;
2022/12/28 04:30:00;;;;;;;1.4;1.4;;;;;;;6.9;100.0;101030;;;;
2022/12/28 04:31:01;;;;;;;1.4;1.4;;;;;;;6.9;100.0;101030;;;;
2022/12/28 04:32:00;;;;;;;1.4;1.4;;;;;;;7.0;100.0;101030;;;;
2022/12/28 04:33:00;;;;;;;1.4;1.4;;;;;;;7.0;100.0;101030;;;;
2022/12/28 04:34:00;;;;;;;1.4;1.4;;;;;;;7.0;100.0;101030;;;;
2022/12/28 04:35:00;;;;;;;1.4;1.4;;;;;;;7.0;100.0;101030;;;;
2022/12/28 04:36:10;;;;;;;1.4;1.4;;;;;;;7.0;100.0;101030;;;;
2022/12/28 04:37:00;;;;;;;1.4;1.4;;;;;;;7.0;100.0;101030;;;;
2022/12/28 04:38:00;;;;;;;1.4;1.4;;;;;;;7.0;100.0;101030;;;;
2022/12/28 04:39:00;;;;;;;1.4;1.4;;;;;;;7.0;100.0;101030;;;;
2022/12/28 04:40:00;;;;;;;1.4;1.4;;;;;;;7.1;100.0;101030;;;;
2022/12/28 04:41:00;;;;;;;1.4;1.4;;;;;;;7.1;100.0;101030;;;;
2022/12/28 04:42:00;;;;;;;1.4;1.4;;;;;;;7.0;100.0;101030;;;;
2022/12/28 04:43:00;;;;;;;1.4;1.4;;;;;;;7.0;100.0;101030;;;;
2022/12/28 04:44:01;;;;;;;1.4;1.4;;;;;;;7.0;100.0;101020;;;;
2022/12/28 04:45:00;;;;;;;1.4;1.4;;;;;;;7.0;100.0;101020;;;;
2022/12/28 04:46:02;;;;;;;1.4;1.4;;;;;;;7.0;100.0;101020;;;;
2022/12/28 04:47:00;;;;;;;1.4;1.4;;;;;;;7.0;100.0;101020;;;;
2022/12/28 04:48:00;;;;;;;1.4;1.4;;;;;;;7.0;100.0;101020;;;;
2022/12/28 04:49:00;;;;;;;1.4;1.4;;;;;;;7.0;100.0;101020;;;;
2022/12/28 04:50:00;;;;;;;1.4;1.4;;;;;;;7.1;100.0;101020;;;;
2022/12/28 04:51:09;;;;;;;1.4;1.4;;;;;;;7.1;100.0;101020;;;;
2022/12/28 04:52:00;;;;;;;1.4;1.4;;;;;;;7.0;100.0;101010;;;;
2022/12/28 04:53:00;;;;;;;1.4;1.4;;;;;;;7.0;100.0;101010;;;;
2022/12/28 04:54:00;;;;;;;1.4;1.4;;;;;;;7.0;100.0;101010;;;;
2022/12/28 04:55:00;;;;;;;1.4;1.4;;;;;;;7.0;100.0;101010;;;;
2022/12/28 04:56:02;;;;;;;1.4;1.4;;;;;;;7.1;100.0;101010;;;;
2022/12/28 04:57:00;;;;;;;1.4;1.4;;;;;;;7.1;100.0;101010;;;;
2022/12/28 04:58:00;;;;;;;1.4;1.4;;;;;;;7.1;100.0;101020;;;;
2022/12/28 04:59:00;;;;;;;1.5;1.5;;;;;;;7.1;100.0;101020;;;;
2022/12/28 05:00:00;;;;;;;1.5;1.5;;;;;;;7.1;100.0;101020;;;;
2022/12/28 05:01:03;;;;;;;1.5;1.5;;;;;;;7.1;100.0;101020;;;;
2022/12/28 05:02:01;;;;;;;1.5;1.5;;;;;;;7.2;100.0;101010;;;;
2022/12/28 05:03:01;;;;;;;1.5;1.5;;;;;;;7.2;100.0;101010;;;;
2022/12/28 05:04:00;;;;;;;1.5;1.5;;;;;;;7.2;100.0;101010;;;;
2022/12/28 05:05:00;;;;;;;1.5;1.5;;;;;;;7.2;100.0;101010;;;;
2022/12/28 05:06:01;;;;;;;1.5;1.5;;;;;;;7.2;100.0;101010;;;;
2022/12/28 05:07:00;;;;;;;1.5;1.5;;;;;;;7.2;100.0;101010;;;;
2022/12/28 05:08:01;;;;;;;1.5;1.5;;;;;;;7.2;100.0;101010;;;;
2022/12/28 05:09:00;;;;;;;1.5;1.5;;;;;;;7.2;100.0;101010;;;;
2022/12/28 05:10:00;;;;;;;1.5;1.5;;;;;;;7.2;100.0;101010;;;;
2022/12/28 05:11:01;;;;;;;1.5;1.5;;;;;;;7.2;100.0;101010;;;;
2022/12/28 05:12:00;;;;;;;1.5;1.5;;;;;;;7.3;100.0;101010;;;;
2022/12/28 05:13:00;;;;;;;1.5;1.5;;;;;;;7.3;100.0;101010;;;;
2022/12/28 05:14:00;;;;;;;1.5;1.5;;;;;;;7.3;100.0;101010;;;;
2022/12/28 05:15:00;;;;;;;1.5;1.5;;;;;;;7.3;100.0;101010;;;;
2022/12/28 05:16:01;;;;;;;1.5;1.5;;;;;;;7.3;100.0;101000;;;;
2022/12/28 05:17:00;;;;;;;1.5;1.5;;;;;;;7.3;100.0;101000;;;;
2022/12/28 05:18:00;;;;;;;1.5;1.5;;;;;;;7.2;100.0;101010;;;;
2022/12/28 05:19:00;;;;;;;1.4;1.4;;;;;;;7.2;100.0;101010;;;;
2022/12/28 05:20:01;;;;;;;1.4;1.4;;;;;;;7.2;100.0;101000;;;;
2022/12/28 05:21:02;;;;;;;1.4;1.4;;;;;;;7.2;100.0;101000;;;;
2022/12/28 05:22:00;;;;;;;1.4;1.4;;;;;;;7.3;100.0;101010;;;;
2022/12/28 05:23:00;;;;;;;1.4;1.4;;;;;;;7.3;100.0;101010;;;;
2022/12/28 05:24:00;;;;;;;1.4;1.4;;;;;;;7.3;100.0;101000;;;;
2022/12/28 05:25:00;;;;;;;1.4;1.4;;;;;;;7.3;100.0;101000;;;;
2022/12/28 05:26:01;;;;;;;1.4;1.4;;;;;;;7.3;100.0;101000;;;;
2022/12/28 05:27:00;;;;;;;1.4;1.4;;;;;;;7.3;100.0;101000;;;;
2022/12/28 05:28:00;;;;;;;1.4;1.4;;;;;;;7.4;100.0;101000;;;;
2022/12/28 05:29:00;;;;;;;1.4;1.4;;;;;;;7.4;100.0;101000;;;;
2022/12/28 05:30:00;;;;;;;1.4;1.4;;;;;;;7.4;100.0;101000;;;;
2022/12/28 05:31:01;;;;;;;1.4;1.4;;;;;;;7.4;100.0;101000;;;;
2022/12/28 05:32:00;;;;;;;1.4;1.4;;;;;;;7.4;100.0;101010;;;;
2022/12/28 05:33:00;;;;;;;1.4;1.4;;;;;;;7.4;100.0;101010;;;;
2022/12/28 05:34:00;;;;;;;1.4;1.4;;;;;;;7.4;100.0;101010;;;;
2022/12/28 05:35:00;;;;;;;1.4;1.4;;;;;;;7.4;100.0;101010;;;;
2022/12/28 05:36:02;;;;;;;1.4;1.4;;;;;;;7.4;100.0;101010;;;;
2022/12/28 05:37:00;;;;;;;1.4;1.4;;;;;;;7.4;100.0;101010;;;;
2022/12/28 05:38:00;;;;;;;1.4;1.4;;;;;;;7.5;100.0;101000;;;;
2022/12/28 05:39:00;;;;;;;1.1;1.1;;;;;;;7.5;100.0;101000;;;;
2022/12/28 05:40:00;;;;;;;1.1;1.1;;;;;;;7.5;100.0;101010;;;;
2022/12/28 05:41:10;;;;;;;1.1;1.1;;;;;;;7.5;100.0;101010;;;;
2022/12/28 05:42:01;;;;;;;1.1;1.1;;;;;;;7.6;100.0;101000;;;;
2022/12/28 05:43:00;;;;;;;1.1;1.1;;;;;;;7.6;100.0;101000;;;;
2022/12/28 05:44:00;;;;;;;1.1;1.1;;;;;;;7.5;100.0;101010;;;;
2022/12/28 05:45:00;;;;;;;1.1;1.1;;;;;;;7.5;100.0;101010;;;;
2022/12/28 05:46:02;;;;;;;1.1;1.1;;;;;;;7.5;100.0;101000;;;;
2022/12/28 05:47:00;;;;;;;1.1;1.1;;;;;;;7.5;100.0;101000;;;;
2022/12/28 05:48:00;;;;;;;1.1;1.1;;;;;;;7.4;100.0;101010;;;;
2022/12/28 05:49:01;;;;;;;1.1;1.1;;;;;;;7.4;100.0;101010;;;;
2022/12/28 05:50:00;;;;;;;1.1;1.1;;;;;;;7.4;100.0;101010;;;;
2022/12/28 05:51:01;;;;;;;1.1;1.1;;;;;;;7.4;100.0;101010;;;;
2022/12/28 05:52:00;;;;;;;1.1;1.1;;;;;;;7.5;100.0;101000;;;;
2022/12/28 05:53:00;;;;;;;1.1;1.1;;;;;;;7.5;100.0;101000;;;;
2022/12/28 05:54:03;;;;;;;1.1;1.1;;;;;;;7.5;100.0;101000;;;;
2022/12/28 05:55:00;;;;;;;1.1;1.1;;;;;;;7.5;100.0;101000;;;;
2022/12/28 05:56:02;;;;;;;1.1;1.1;;;;;;;7.5;100.0;101000;;;;
2022/12/28 05:57:00;;;;;;;1.1;1.1;;;;;;;7.5;100.0;101000;;;;
2022/12/28 05:58:00;;;;;;;1.1;1.1;;;;;;;7.5;100.0;101000;;;;
2022/12/28 05:59:03;;;;;;;1.1;1.1;;;;;;;7.5;100.0;101000;;;;
2022/12/28 06:00:00;;;;;;;1.1;1.1;;;;;;;7.6;100.0;100990;;;;
2022/12/28 06:01:04;;;;;;;1.1;1.1;;;;;;;7.6;100.0;100990;;;;
2022/12/28 06:02:01;;;;;;;1.1;1.1;;;;;;;7.6;100.0;100990;;;;
2022/12/28 06:03:00;;;;;;;1.1;1.1;;;;;;;7.6;100.0;100990;;;;
2022/12/28 06:04:03;;;;;;;1.1;1.1;;;;;;;7.5;100.0;100980;;;;
2022/12/28 06:05:00;;;;;;;1.1;1.1;;;;;;;7.5;100.0;100980;;;;
2022/12/28 06:06:03;;;;;;;1.1;1.1;;;;;;;7.6;100.0;100980;;;;
2022/12/28 06:07:00;;;;;;;1.1;1.1;;;;;;;7.6;100.0;100980;;;;
2022/12/28 06:08:01;;;;;;;1.1;1.1;;;;;;;7.6;100.0;100980;;;;
2022/12/28 06:09:00;;;;;;;1.1;1.1;;;;;;;7.6;100.0;100980;;;;
2022/12/28 06:10:00;;;;;;;1.1;1.1;;;;;;;7.6;100.0;100980;;;;
2022/12/28 06:11:01;;;;;;;1.1;1.1;;;;;;;7.6;100.0;100980;;;;
2022/12/28 06:12:00;;;;;;;1.1;1.1;;;;;;;7.6;100.0;100970;;;;
2022/12/28 06:13:00;;;;;;;1.1;1.1;;;;;;;7.6;100.0;100970;;;;
2022/12/28 06:14:02;;;;;;;1.1;1.1;;;;;;;7.6;100.0;100980;;;;
2022/12/28 06:15:00;;;;;;;1.1;1.1;;;;;;;7.6;100.0;100980;;;;
2022/12/28 06:16:09;;;;;;;1.1;1.1;;;;;;;7.7;100.0;100970;;;;
2022/12/28 06:17:00;;;;;;;1.1;1.1;;;;;;;7.7;100.0;100970;;;;
2022/12/28 06:18:00;;;;;;;1.1;1.1;;;;;;;7.7;100.0;100960;;;;
2022/12/28 06:19:05;;;;;;;1.4;1.4;;;;;;;7.7;100.0;100960;;;;
2022/12/28 06:20:00;;;;;;;1.4;1.4;;;;;;;7.6;100.0;100950;;;;
2022/12/28 06:21:02;;;;;;;1.4;1.4;;;;;;;7.6;100.0;100950;;;;
2022/12/28 06:22:00;;;;;;;1.4;1.4;;;;;;;7.6;100.0;100960;;;;
2022/12/28 06:23:00;;;;;;;1.4;1.4;;;;;;;7.6;100.0;100960;;;;
2022/12/28 06:24:01;;;;;;;1.4;1.4;;;;;;;7.7;100.0;100960;;;;
2022/12/28 06:25:00;;;;;;;1.4;1.4;;;;;;;7.7;100.0;100960;;;;
2022/12/28 06:26:01;;;;;;;1.4;1.4;;;;;;;7.6;100.0;100960;;;;
2022/12/28 06:27:00;;;;;;;1.4;1.4;;;;;;;7.6;100.0;100960;;;;
2022/12/28 06:28:00;;;;;;;1.4;1.4;;;;;;;7.6;100.0;100960;;;;
2022/12/28 06:29:01;;;;;;;1.4;1.4;;;;;;;7.6;100.0;100960;;;;
2022/12/28 06:30:00;;;;;;;1.4;1.4;;;;;;;7.6;100.0;100960;;;;
2022/12/28 06:31:04;;;;;;;1.4;1.4;;;;;;;7.6;100.0;100960;;;;
2022/12/28 06:32:00;;;;;;;1.4;1.4;;;;;;;7.6;100.0;100960;;;;
2022/12/28 06:33:00;;;;;;;1.4;1.4;;;;;;;7.6;100.0;100960;;;;
2022/12/28 06:34:01;;;;;;;1.4;1.4;;;;;;;7.6;100.0;100960;;;;
2022/12/28 06:35:01;;;;;;;1.4;1.4;;;;;;;7.6;100.0;100960;;;;
2022/12/28 06:36:01;;;;;;;1.4;1.4;;;;;;;7.6;100.0;100960;;;;
2022/12/28 06:37:00;;;;;;;1.4;1.4;;;;;;;7.6;100.0;100960;;;;
2022/12/28 06:38:00;;;;;;;1.4;1.4;;;;;;;7.7;100.0;100960;;;;
2022/12/28 06:39:01;;;;;;;1.6;1.6;;;;;;;7.7;100.0;100960;;;;
2022/12/28 06:40:00;;;;;;;1.6;1.6;;;;;;;7.6;100.0;100950;;;;
2022/12/28 06:41:12;;;;;;;1.6;1.6;;;;;;;7.6;100.0;100950;;;;
2022/12/28 06:42:00;;;;;;;1.6;1.6;;;;;;;7.7;100.0;100950;;;;
2022/12/28 06:43:00;;;;;;;1.6;1.6;;;;;;;7.7;100.0;100950;;;;
2022/12/28 06:44:00;;;;;;;1.6;1.6;;;;;;;7.7;100.0;100950;;;;
2022/12/28 06:45:00;;;;;;;1.6;1.6;;;;;;;7.7;100.0;100950;;;;
2022/12/28 06:46:00;;;;;;;1.6;1.6;;;;;;;7.7;100.0;100950;;;;
2022/12/28 06:47:00;;;;;;;1.6;1.6;;;;;;;7.7;100.0;100950;;;;
2022/12/28 06:48:00;;;;;;;1.6;1.6;;;;;;;7.7;100.0;100950;;;;
2022/12/28 06:49:00;;;;;;;1.6;1.6;;;;;;;7.7;100.0;100950;;;;
2022/12/28 06:50:00;;;;;;;1.6;1.6;;;;;;;7.8;100.0;100940;;;;
2022/12/28 06:51:10;;;;;;;1.6;1.6;;;;;;;7.8;100.0;100940;;;;
2022/12/28 06:52:00;;;;;;;1.6;1.6;;;;;;;7.7;100.0;100940;;;;